CYDFCYJT

Guest
Details From CYDF - Deer Lake
To CYJT - Stephenville
Flight Number -
Tags Generated
Created
Modified
Stats Distance 61 nm / 113 km
Max Altitude 0 ft / 0 m
Waypoints 2
Social Downloads 1
Likes 0
Share VATSIM

Download

Looking for another format? Having issues loading an existing format? Contact us
Advertisement - Login to hide

Notes

Generated

Route

CYDF CYJT

ID Type Via Altitude Latitude Longitude Leg Dist Tot Dist Heading (true) Name
O CYDF APT - 0 ft / 0 m 49.20533˚ -57.40033˚ - 0 nm - -
O CYJT APT - 0 ft / 0 m 48.53389˚ -58.55250˚ 60 nm 60 nm 229° / 228° -

Altitude Profile

Advertisement - Login to hide

CYDF

Details ICAO CYDF (YDF)
Name DEER LAKE
Region Canada
Timezone America/St_Johns (UTC-3.5)
Stats Elevation 72 ft / 22 m (AMSL)
Location 49.211000° -57.391246°
Runways 1
Magnetic Variation 19.133° W

METAR

CYDF 161500Z 23005KT 15SM BKN039 BKN120 OVC210 M04/M09 A2951 RMK SC5AC2CI1 PRESFR SLP997

Decode

TAF

TAF CYDF 161339Z 1614/1702 VRB03KT P6SM SCT030 BKN120 TEMPO 1614/1620 4SM -SHSN BKN030 OVC120 FM162000 30008KT P6SM -SHSN SCT030 BKN120 TEMPO 1620/1702 4SM -SHSN BKN030 OVC120 PROB30 1620/1702 11/2SM -SHSN RMK NXT FCST BY 162000Z

Decode

Departure Runways

ID Width Length Bearing (true) Bearing (mag) Surface Threshold Offset Overrun Length
07 151 ft / 46 m 5,989 ft / 1,825 m 46.32° 65.45° Asphalt 0 ft / 0 m 0 ft / 0 m
25 151 ft / 46 m 5,989 ft / 1,825 m 226.34° 245.47° Asphalt 0 ft / 0 m 0 ft / 0 m

CYJT

Details ICAO CYJT (YJT)
Name STEPHENVILLE
Region Canada
Timezone America/St_Johns (UTC-3.5)
Stats Elevation 80 ft / 24 m (AMSL)
Location 48.541811° -58.551488°
Runways 2
Magnetic Variation 18.922° W

METAR

CYJT 161500Z VRB02KT 12SM -SHSN OVC025 M03/M07 A2950 RMK SC8 PRESFR SLP992

Decode

TAF

TAF TAF CYJT 161138Z 1612/1712 24015G25KT P6SM OVC030 TEMPO 1612/1620 3SM -SHSN OVC015 BECMG 1614/1616 30015KT FM162000 32010G20KT 2SM -SHSN BLSN OVC015 TEMPO 1620/1712 6SM -SN OVC025 BECMG 1701/1703 30020G30KT RMK NXT FCST BY 161800Z

Decode

Destination Runways

ID Width Length Bearing (true) Bearing (mag) Surface Threshold Offset Overrun Length
02 150 ft / 46 m 3,770 ft / 1,149 m 355.50° 14.42° Asphalt 0 ft / 0 m 0 ft / 0 m
09 200 ft / 61 m 9,970 ft / 3,039 m 71.61° 90.53° Asphalt 0 ft / 0 m 1,000 ft / 305 m
20 150 ft / 46 m 3,770 ft / 1,149 m 175.50° 194.42° Asphalt 0 ft / 0 m 0 ft / 0 m
27 200 ft / 61 m 9,970 ft / 3,039 m 251.64° 270.56° Asphalt 0 ft / 0 m 1,000 ft / 305 m

Popular Alternatives